createdAt,value
2023-04-16T00:00:28.666Z,11.30
2023-04-16T00:02:56.009Z,11.29
2023-04-16T00:05:23.449Z,11.30
2023-04-16T00:07:51.916Z,11.19
2023-04-16T00:10:19.160Z,11.48
2023-04-16T00:12:46.321Z,11.27
2023-04-16T00:15:13.473Z,11.24
2023-04-16T00:17:40.628Z,11.28
2023-04-16T00:20:09.274Z,11.29
2023-04-16T00:22:36.404Z,11.63
2023-04-16T00:25:03.634Z,11.39
2023-04-16T00:27:30.769Z,11.39
2023-04-16T00:29:58.249Z,11.65
2023-04-16T00:32:25.781Z,11.43
2023-04-16T00:34:52.943Z,11.59
2023-04-16T00:37:20.011Z,11.69
2023-04-16T00:39:47.147Z,11.68
2023-04-16T00:42:14.325Z,11.68
2023-04-16T00:44:41.479Z,11.87
2023-04-16T00:47:09.173Z,12.05
2023-04-16T00:49:36.963Z,12.00
2023-04-16T00:52:04.683Z,11.92
2023-04-16T00:54:32.346Z,12.42
2023-04-16T00:57:00.187Z,12.75
2023-04-16T00:59:28.083Z,12.45
2023-04-16T01:01:55.388Z,12.67
2023-04-16T01:04:22.918Z,12.57
2023-04-16T01:06:51.389Z,12.52
2023-04-16T01:09:18.697Z,12.98
2023-04-16T01:11:46.088Z,13.21
2023-04-16T01:14:13.309Z,13.41
2023-04-16T01:16:40.349Z,13.48
2023-04-16T01:19:07.851Z,13.61
2023-04-16T01:21:35.141Z,13.71
2023-04-16T01:24:05.700Z,13.78
2023-04-16T01:26:33.718Z,13.84
2023-04-16T01:29:00.943Z,13.88
2023-04-16T01:31:28.086Z,13.93
2023-04-16T01:34:07.987Z,13.97
2023-04-16T01:36:35.557Z,14.04
2023-04-16T01:39:02.737Z,14.07
2023-04-16T01:41:29.846Z,14.07
2023-04-16T01:43:56.934Z,14.09
2023-04-16T01:46:29.092Z,14.06
2023-04-16T01:48:57.149Z,13.92
2023-04-16T01:51:24.408Z,14.03
2023-04-16T01:53:51.682Z,14.06
2023-04-16T01:56:18.942Z,14.06
2023-04-16T01:58:48.614Z,14.02
2023-04-16T02:01:17.627Z,14.11
2023-04-16T02:03:46.091Z,14.05
2023-04-16T02:06:13.585Z,14.06
2023-04-16T02:08:41.824Z,13.96
2023-04-16T02:11:09.093Z,13.98
2023-04-16T02:13:36.746Z,13.97
2023-04-16T02:16:04.143Z,13.86
2023-04-16T02:18:44.031Z,13.96
2023-04-16T02:21:13.369Z,13.90
2023-04-16T02:23:41.701Z,13.95
2023-04-16T02:26:08.913Z,13.90
2023-04-16T02:28:36.039Z,13.93
2023-04-16T02:31:03.375Z,13.89
2023-04-16T02:33:36.625Z,13.92
2023-04-16T02:36:04.307Z,13.89
2023-04-16T02:38:31.503Z,13.84
2023-04-16T02:40:59.660Z,13.80
2023-04-16T02:43:26.852Z,13.83
2023-04-16T02:45:53.969Z,13.86
2023-04-16T02:48:21.261Z,13.94
2023-04-16T02:50:48.369Z,13.89
2023-04-16T02:53:15.670Z,13.97
2023-04-16T02:55:47.344Z,13.87
2023-04-16T02:58:14.429Z,13.08
2023-04-16T03:00:41.613Z,13.31
2023-04-16T03:03:08.794Z,13.50
2023-04-16T03:05:36.415Z,13.47
2023-04-16T03:08:04.937Z,12.54
2023-04-16T03:10:32.627Z,12.54
2023-04-16T03:12:59.780Z,12.09
2023-04-16T03:15:27.592Z,11.97
2023-04-16T03:17:55.087Z,11.94
2023-04-16T03:20:22.243Z,11.82
2023-04-16T03:22:49.983Z,12.36
2023-04-16T03:25:17.176Z,12.70
2023-04-16T03:27:44.508Z,12.91
2023-04-16T03:30:13.504Z,13.10
2023-04-16T03:32:41.125Z,12.65
2023-04-16T03:35:09.276Z,12.65
2023-04-16T03:37:37.692Z,12.91
2023-04-16T03:40:07.662Z,13.09
2023-04-16T03:42:34.981Z,13.16
2023-04-16T03:45:02.938Z,13.17
2023-04-16T03:47:31.670Z,13.24
2023-04-16T03:50:02.301Z,13.23
2023-04-16T03:52:29.540Z,13.31
2023-04-16T03:54:57.091Z,13.35
2023-04-16T03:57:27.199Z,13.36
2023-04-16T03:59:58.533Z,13.36
2023-04-16T04:02:28.409Z,13.18
2023-04-16T04:04:55.709Z,13.12
2023-04-16T04:07:23.606Z,13.14
2023-04-16T04:09:51.729Z,13.09
2023-04-16T04:12:18.843Z,12.82
2023-04-16T04:14:46.731Z,12.33
2023-04-16T04:17:13.893Z,12.60
2023-04-16T04:19:47.256Z,12.51
2023-04-16T04:22:21.967Z,12.05
2023-04-16T04:24:49.145Z,11.74
2023-04-16T04:27:16.361Z,12.05
2023-04-16T04:29:43.475Z,12.22
2023-04-16T04:32:11.388Z,12.24
2023-04-16T04:34:38.545Z,12.14
2023-04-16T04:37:07.157Z,12.57
2023-04-16T04:39:34.248Z,12.57
2023-04-16T04:42:03.563Z,12.10
2023-04-16T04:44:31.040Z,12.16
2023-04-16T04:46:58.194Z,12.55
2023-04-16T04:49:25.356Z,12.82
2023-04-16T04:51:53.203Z,12.91
2023-04-16T04:54:21.298Z,12.41
2023-04-16T04:56:48.470Z,12.86
2023-04-16T04:59:15.724Z,13.23
2023-04-16T05:01:42.964Z,13.41
2023-04-16T05:04:10.064Z,13.49
2023-04-16T05:06:37.223Z,13.55
2023-04-16T05:09:04.516Z,13.58
2023-04-16T05:11:31.905Z,13.59
2023-04-16T05:13:59.017Z,13.62
2023-04-16T05:16:26.270Z,13.64
2023-04-16T05:18:53.408Z,13.74
2023-04-16T05:21:20.539Z,13.81
2023-04-16T05:23:47.660Z,13.59
2023-04-16T05:26:14.745Z,13.78
2023-04-16T05:28:41.812Z,13.98
2023-04-16T05:31:09.004Z,13.94
2023-04-16T05:33:36.204Z,14.02
2023-04-16T05:36:03.575Z,14.00
2023-04-16T05:38:30.759Z,14.07
2023-04-16T05:40:58.996Z,14.06
2023-04-16T05:43:26.084Z,14.13
2023-04-16T05:45:53.140Z,14.19
2023-04-16T05:48:20.504Z,14.14
2023-04-16T05:50:47.599Z,14.18
2023-04-16T05:53:15.492Z,14.26
2023-04-16T05:55:42.562Z,14.30
2023-04-16T05:58:10.036Z,14.37
2023-04-16T06:00:37.672Z,14.35
2023-04-16T06:03:05.388Z,14.41
2023-04-16T06:05:32.572Z,14.37
2023-04-16T06:08:00.478Z,14.19
2023-04-16T06:10:27.804Z,14.24
2023-04-16T06:12:55.585Z,14.31
2023-04-16T06:15:22.839Z,14.38
2023-04-16T06:17:51.367Z,14.42
2023-04-16T06:20:18.885Z,14.40
2023-04-16T06:22:46.470Z,14.13
2023-04-16T06:25:13.816Z,14.28
2023-04-16T06:27:42.371Z,13.43
2023-04-16T06:30:13.670Z,13.16
2023-04-16T06:32:41.549Z,12.83
2023-04-16T06:35:09.316Z,12.80
2023-04-16T06:37:36.933Z,12.79
2023-04-16T06:40:05.376Z,12.57
2023-04-16T06:42:33.148Z,12.62
2023-04-16T06:45:00.211Z,12.47
2023-04-16T06:47:27.717Z,12.60
2023-04-16T06:49:55.021Z,12.37
2023-04-16T06:52:22.351Z,12.31
2023-04-16T06:54:49.746Z,12.47
2023-04-16T06:57:17.218Z,12.29
2023-04-16T06:59:44.465Z,12.43
2023-04-16T07:02:12.309Z,12.20
2023-04-16T07:04:39.415Z,12.38
2023-04-16T07:07:07.118Z,12.55
2023-04-16T07:09:34.420Z,12.75
2023-04-16T07:12:01.784Z,12.73
2023-04-16T07:14:28.974Z,12.83
2023-04-16T07:16:56.663Z,12.87
2023-04-16T07:19:23.796Z,12.97
2023-04-16T07:21:51.140Z,12.94
2023-04-16T07:24:18.991Z,13.02
2023-04-16T07:26:46.497Z,13.52
2023-04-16T07:29:13.847Z,13.91
2023-04-16T07:31:42.062Z,14.26
2023-04-16T07:34:09.189Z,13.96
2023-04-16T07:36:36.741Z,14.24
2023-04-16T07:39:05.894Z,14.22
2023-04-16T07:41:33.100Z,14.55
2023-04-16T07:44:00.551Z,14.57
2023-04-16T07:46:36.101Z,14.55
2023-04-16T07:49:10.996Z,14.82
2023-04-16T07:51:38.126Z,14.62
2023-04-16T07:54:05.250Z,14.16
2023-04-16T07:56:32.442Z,14.46
2023-04-16T07:59:07.867Z,14.59
2023-04-16T08:01:46.346Z,14.55
2023-04-16T08:04:14.618Z,14.76
2023-04-16T08:06:41.885Z,14.99
2023-04-16T08:09:09.337Z,16.04
2023-04-16T08:11:36.691Z,16.04
2023-04-16T08:14:04.150Z,16.71
2023-04-16T08:16:31.220Z,16.75
2023-04-16T08:18:58.730Z,17.09
2023-04-16T08:21:26.514Z,16.59
2023-04-16T08:23:54.428Z,17.10
2023-04-16T08:26:21.590Z,16.76
2023-04-16T08:28:48.612Z,17.12
2023-04-16T08:31:16.173Z,17.57
2023-04-16T08:33:43.640Z,17.82
2023-04-16T08:36:10.858Z,17.95
2023-04-16T08:38:37.977Z,17.41
2023-04-16T08:41:09.699Z,17.54
2023-04-16T08:43:38.698Z,17.99
2023-04-16T08:46:06.392Z,18.20
2023-04-16T08:48:35.484Z,17.63
2023-04-16T08:51:02.862Z,17.51
2023-04-16T08:53:58.745Z,17.98
2023-04-16T08:56:27.228Z,17.93
2023-04-16T08:58:55.779Z,17.81
2023-04-16T09:01:24.712Z,17.55
2023-04-16T09:03:52.399Z,17.24
2023-04-16T09:06:20.099Z,17.76
2023-04-16T09:08:48.425Z,17.76
2023-04-16T09:11:18.491Z,17.54
2023-04-16T09:13:46.863Z,18.25
2023-04-16T09:16:15.695Z,18.73
2023-04-16T09:18:42.906Z,18.94
2023-04-16T09:21:14.057Z,19.43
2023-04-16T09:23:42.183Z,19.39
2023-04-16T09:26:09.276Z,18.97
2023-04-16T09:28:45.865Z,18.94
2023-04-16T09:31:18.160Z,18.69
2023-04-16T09:34:02.822Z,19.26
2023-04-16T09:36:31.684Z,20.31
2023-04-16T09:39:00.012Z,20.90
2023-04-16T09:41:29.517Z,21.46
2023-04-16T09:43:57.934Z,21.26
2023-04-16T09:46:34.155Z,21.25
2023-04-16T09:49:18.904Z,21.92
2023-04-16T09:51:48.308Z,22.47
2023-04-16T09:54:16.195Z,22.69
2023-04-16T09:56:45.278Z,22.70
2023-04-16T09:59:19.466Z,22.75
2023-04-16T10:02:14.396Z,22.73
2023-04-16T10:04:50.561Z,22.59
2023-04-16T10:07:19.155Z,22.78
2023-04-16T10:09:48.954Z,22.10
2023-04-16T10:12:17.027Z,22.36
2023-04-16T10:14:45.257Z,22.08
2023-04-16T10:17:12.948Z,21.66
2023-04-16T10:19:41.099Z,21.55
2023-04-16T10:22:08.448Z,21.52
2023-04-16T10:24:36.486Z,21.88
2023-04-16T10:27:03.918Z,21.77
2023-04-16T10:29:32.079Z,21.95
2023-04-16T10:32:00.398Z,22.02
2023-04-16T10:34:29.370Z,21.99
2023-04-16T10:36:56.620Z,21.76
2023-04-16T10:39:27.398Z,21.29
2023-04-16T10:42:13.773Z,21.19
2023-04-16T10:44:44.269Z,21.78
2023-04-16T10:47:14.432Z,21.48
2023-04-16T10:49:42.921Z,21.79
2023-04-16T10:52:12.900Z,20.95
2023-04-16T10:54:41.287Z,21.08
2023-04-16T10:57:18.161Z,20.77
2023-04-16T10:59:46.287Z,20.68
2023-04-16T11:02:22.996Z,20.83
2023-04-16T11:04:51.457Z,20.78
2023-04-16T11:07:20.820Z,20.72
2023-04-16T11:09:57.058Z,21.00
2023-04-16T11:12:40.797Z,21.14
2023-04-16T11:15:10.302Z,20.69
2023-04-16T11:17:52.086Z,20.04
2023-04-16T11:20:21.826Z,20.63
2023-04-16T11:22:50.163Z,20.70
2023-04-16T11:25:27.354Z,20.57
2023-04-16T11:27:55.048Z,20.31
2023-04-16T11:30:34.387Z,20.20
2023-04-16T11:33:12.186Z,20.13
2023-04-16T11:35:40.497Z,19.73
2023-04-16T11:38:07.870Z,20.09
2023-04-16T11:40:36.313Z,20.20
2023-04-16T11:43:05.302Z,20.30
2023-04-16T11:45:32.494Z,20.30
2023-04-16T11:47:59.679Z,20.14
2023-04-16T11:50:28.714Z,19.58
2023-04-16T11:52:58.265Z,19.06
2023-04-16T11:55:25.753Z,19.50
2023-04-16T11:57:53.004Z,20.02
2023-04-16T12:00:24.352Z,19.19
2023-04-16T12:02:54.249Z,19.03
2023-04-16T12:05:31.025Z,19.19
2023-04-16T12:08:03.673Z,19.10
2023-04-16T12:10:32.903Z,18.67
2023-04-16T12:13:17.362Z,18.71
2023-04-16T12:15:45.711Z,19.13
2023-04-16T12:18:13.033Z,18.98
2023-04-16T12:20:42.276Z,19.01
2023-04-16T12:23:09.744Z,18.82
2023-04-16T12:25:37.222Z,18.54
2023-04-16T12:28:04.991Z,18.40
2023-04-16T12:30:32.219Z,18.77
2023-04-16T12:33:18.692Z,19.21
2023-04-16T12:35:46.326Z,19.24
2023-04-16T12:38:15.421Z,19.50
2023-04-16T12:40:42.872Z,19.63
2023-04-16T12:43:11.128Z,20.17
2023-04-16T12:45:39.294Z,19.43
2023-04-16T12:48:06.741Z,19.56
2023-04-16T12:50:33.988Z,19.43
2023-04-16T12:53:01.128Z,19.32
2023-04-16T12:55:28.283Z,19.54
2023-04-16T12:57:55.409Z,19.70
2023-04-16T13:00:22.957Z,19.34
2023-04-16T13:02:50.295Z,19.66
2023-04-16T13:05:19.529Z,19.62
2023-04-16T13:07:46.883Z,19.63
2023-04-16T13:10:14.164Z,19.18
2023-04-16T13:12:41.475Z,19.83
2023-04-16T13:15:09.484Z,19.97
2023-04-16T13:17:36.668Z,20.05
2023-04-16T13:20:03.929Z,20.01
2023-04-16T13:22:31.125Z,20.53
2023-04-16T13:24:58.269Z,20.57
2023-04-16T13:27:25.401Z,20.55
2023-04-16T13:29:52.722Z,21.02
2023-04-16T13:32:20.705Z,20.56
2023-04-16T13:34:47.852Z,20.29
2023-04-16T13:37:15.474Z,19.99
2023-04-16T13:39:45.897Z,20.28
2023-04-16T13:42:13.152Z,20.67
2023-04-16T13:44:40.248Z,20.70
2023-04-16T13:47:07.486Z,20.46
2023-04-16T13:49:36.100Z,20.11
2023-04-16T13:52:03.823Z,20.33
2023-04-16T13:54:31.868Z,20.68
2023-04-16T13:56:59.255Z,20.53
2023-04-16T13:59:26.943Z,20.33
2023-04-16T14:01:54.168Z,20.76
2023-04-16T14:04:22.669Z,20.91
2023-04-16T14:06:50.646Z,21.07
2023-04-16T14:09:17.858Z,21.47
2023-04-16T14:11:45.000Z,21.55
2023-04-16T14:14:12.620Z,21.10
2023-04-16T14:16:39.828Z,20.93
2023-04-16T14:19:07.117Z,21.25
2023-04-16T14:21:34.392Z,21.52
2023-04-16T14:24:01.645Z,21.32
2023-04-16T14:26:28.899Z,21.35
2023-04-16T14:28:56.040Z,21.41
2023-04-16T14:31:23.783Z,21.55
2023-04-16T14:33:51.083Z,21.12
2023-04-16T14:36:18.287Z,21.22
2023-04-16T14:38:45.593Z,21.08
2023-04-16T14:41:13.453Z,20.89
2023-04-16T14:43:41.626Z,20.10
2023-04-16T14:46:08.980Z,20.17
2023-04-16T14:48:36.488Z,20.07
2023-04-16T14:51:03.761Z,20.01
2023-04-16T14:53:31.560Z,19.80
2023-04-16T14:55:59.359Z,19.86
2023-04-16T14:58:26.886Z,19.91
2023-04-16T15:00:54.332Z,20.04
2023-04-16T15:03:21.735Z,20.02
2023-04-16T15:05:55.539Z,19.92
2023-04-16T15:08:23.690Z,19.96
2023-04-16T15:10:51.574Z,19.44
2023-04-16T15:13:18.814Z,19.57
2023-04-16T15:15:46.134Z,19.78
2023-04-16T15:18:13.623Z,19.76
2023-04-16T15:20:40.696Z,19.72
2023-04-16T15:23:08.077Z,19.74
2023-04-16T15:25:35.268Z,19.62
2023-04-16T15:28:03.005Z,19.56
2023-04-16T15:30:31.524Z,19.62
2023-04-16T15:32:58.704Z,19.46
2023-04-16T15:35:25.904Z,19.44
2023-04-16T15:37:53.178Z,19.34
2023-04-16T15:40:20.960Z,19.16
2023-04-16T15:42:48.265Z,19.06
2023-04-16T15:45:15.435Z,18.74
2023-04-16T15:47:44.835Z,18.79
2023-04-16T15:50:12.086Z,18.62
2023-04-16T15:52:40.614Z,18.65
2023-04-16T15:55:08.484Z,18.63
2023-04-16T15:57:36.135Z,18.70
2023-04-16T16:00:13.510Z,18.64
2023-04-16T16:02:42.264Z,18.71
2023-04-16T16:05:14.017Z,18.68
2023-04-16T16:07:42.516Z,18.73
2023-04-16T16:10:11.650Z,18.66
2023-04-16T16:12:39.475Z,18.56
2023-04-16T16:15:08.307Z,18.45
2023-04-16T16:17:35.515Z,18.48
2023-04-16T16:20:04.284Z,18.62
2023-04-16T16:22:31.618Z,18.43
2023-04-16T16:24:58.968Z,18.40
2023-04-16T16:27:26.186Z,18.48
2023-04-16T16:29:54.052Z,18.52
2023-04-16T16:32:21.241Z,18.37
2023-04-16T16:34:49.291Z,18.59
2023-04-16T16:37:16.813Z,18.68
2023-04-16T16:39:44.772Z,18.64
2023-04-16T16:42:12.054Z,18.58
2023-04-16T16:44:40.219Z,18.50
2023-04-16T16:47:08.506Z,18.43
2023-04-16T16:49:36.169Z,18.28
2023-04-16T16:52:03.486Z,18.12
2023-04-16T16:54:31.218Z,18.10
2023-04-16T16:56:58.952Z,18.19
2023-04-16T16:59:27.005Z,18.15
2023-04-16T17:01:54.140Z,17.97
2023-04-16T17:04:21.837Z,17.65
2023-04-16T17:06:49.656Z,17.74
2023-04-16T17:09:17.620Z,17.76
2023-04-16T17:11:44.702Z,17.70
2023-04-16T17:14:12.268Z,17.75
2023-04-16T17:16:39.370Z,17.81
2023-04-16T17:19:07.009Z,17.93
2023-04-16T17:21:34.248Z,17.74
2023-04-16T17:24:01.736Z,17.65
2023-04-16T17:26:29.048Z,17.53
2023-04-16T17:28:57.870Z,17.34
2023-04-16T17:31:27.217Z,17.48
2023-04-16T17:33:54.560Z,17.38
2023-04-16T17:36:23.330Z,17.50
2023-04-16T17:38:50.938Z,17.56
2023-04-16T17:41:18.153Z,17.70
2023-04-16T17:43:48.978Z,17.69
2023-04-16T17:46:16.869Z,17.67
2023-04-16T17:48:44.505Z,17.62
2023-04-16T17:51:12.504Z,17.66
2023-04-16T17:53:39.831Z,17.37
2023-04-16T17:56:07.035Z,17.03
2023-04-16T17:58:35.574Z,17.46
2023-04-16T18:01:04.231Z,17.29
2023-04-16T18:03:32.889Z,17.24
2023-04-16T18:06:00.939Z,17.55
2023-04-16T18:08:29.310Z,17.65
2023-04-16T18:10:57.169Z,17.78
2023-04-16T18:13:24.825Z,17.48
2023-04-16T18:15:53.491Z,17.48
2023-04-16T18:18:21.583Z,17.46
2023-04-16T18:20:48.985Z,17.47
2023-04-16T18:23:16.740Z,17.45
2023-04-16T18:25:44.570Z,17.50
2023-04-16T18:28:14.040Z,17.73
2023-04-16T18:30:42.583Z,17.45
2023-04-16T18:35:40.927Z,16.90
2023-04-16T18:38:08.143Z,17.10
2023-04-16T18:40:36.607Z,17.15
2023-04-16T18:43:04.322Z,17.21
2023-04-16T18:45:34.694Z,17.07
2023-04-16T18:48:03.889Z,17.02
2023-04-16T18:50:31.315Z,17.27
2023-04-16T18:52:58.524Z,17.36
2023-04-16T18:55:25.622Z,17.37
2023-04-16T18:57:53.492Z,17.28
2023-04-16T19:00:20.842Z,17.18
2023-04-16T19:02:48.126Z,17.25
2023-04-16T19:05:15.797Z,17.16
2023-04-16T19:07:42.898Z,16.98
2023-04-16T19:10:10.378Z,16.99
2023-04-16T19:12:37.562Z,16.97
2023-04-16T19:15:06.083Z,17.08
2023-04-16T19:17:33.380Z,16.88
2023-04-16T19:20:00.692Z,16.83
2023-04-16T19:22:27.892Z,16.59
2023-04-16T19:24:55.967Z,16.27
2023-04-16T19:27:23.118Z,16.45
2023-04-16T19:29:50.228Z,16.36
2023-04-16T19:32:17.550Z,16.42
2023-04-16T19:34:44.673Z,16.54
2023-04-16T19:37:12.016Z,16.29
2023-04-16T19:39:39.384Z,16.24
2023-04-16T19:42:06.737Z,16.37
2023-04-16T19:44:33.795Z,16.07
2023-04-16T19:47:00.929Z,16.07
2023-04-16T19:49:34.365Z,15.99
2023-04-16T19:52:02.004Z,16.00
2023-04-16T19:54:29.288Z,15.93
2023-04-16T19:56:57.382Z,15.96
2023-04-16T19:59:28.891Z,15.72
2023-04-16T20:01:56.249Z,15.77
2023-04-16T20:04:23.681Z,15.74
2023-04-16T20:06:51.088Z,15.58
2023-04-16T20:09:20.389Z,15.77
2023-04-16T20:11:47.839Z,15.83
2023-04-16T20:14:15.418Z,15.88
2023-04-16T20:16:43.961Z,15.56
2023-04-16T20:19:11.353Z,15.84
2023-04-16T20:21:40.766Z,16.20
2023-04-16T20:24:10.830Z,16.05
2023-04-16T20:26:38.047Z,15.80
2023-04-16T20:29:05.407Z,15.73
2023-04-16T20:31:33.099Z,15.89
2023-04-16T20:34:00.391Z,15.86
2023-04-16T20:36:31.112Z,16.20
2023-04-16T20:38:59.679Z,16.24
2023-04-16T20:41:27.666Z,16.28
2023-04-16T20:43:54.855Z,16.29
2023-04-16T20:46:25.377Z,16.43
2023-04-16T20:48:52.588Z,16.50
2023-04-16T20:51:19.822Z,16.37
2023-04-16T20:53:46.931Z,16.43
2023-04-16T20:56:15.277Z,16.45
2023-04-16T20:58:43.018Z,16.54
2023-04-16T21:01:10.688Z,16.52
2023-04-16T21:03:38.171Z,16.51
2023-04-16T21:06:05.587Z,16.51
2023-04-16T21:08:32.921Z,16.47
2023-04-16T21:11:00.274Z,16.50
2023-04-16T21:13:27.436Z,16.45
2023-04-16T21:15:54.831Z,16.39
2023-04-16T21:18:22.036Z,16.38
2023-04-16T21:20:49.263Z,16.48
2023-04-16T21:23:16.678Z,16.50
2023-04-16T21:25:43.852Z,16.30
2023-04-16T21:28:10.991Z,16.31
2023-04-16T21:30:38.701Z,16.44
2023-04-16T21:33:06.408Z,16.45
2023-04-16T21:35:33.739Z,16.50
2023-04-16T21:38:01.077Z,16.51
2023-04-16T21:40:28.319Z,16.56
2023-04-16T21:42:55.729Z,16.66
2023-04-16T21:45:23.172Z,16.64
2023-04-16T21:47:50.583Z,16.68
2023-04-16T21:50:17.758Z,16.65
2023-04-16T21:52:46.644Z,16.71
2023-04-16T21:55:14.654Z,16.72
2023-04-16T21:57:42.069Z,16.76
2023-04-16T22:00:14.099Z,16.87
2023-04-16T22:02:43.274Z,16.90
2023-04-16T22:05:11.611Z,16.85
2023-04-16T22:07:38.999Z,16.87
2023-04-16T22:10:07.153Z,16.93
2023-04-16T22:12:37.988Z,16.83
2023-04-16T22:15:06.500Z,16.83
2023-04-16T22:17:34.633Z,16.78
2023-04-16T22:20:05.464Z,16.83
2023-04-16T22:22:33.403Z,16.52
2023-04-16T22:25:00.641Z,16.48
2023-04-16T22:27:27.829Z,16.58
2023-04-16T22:29:54.936Z,16.75
2023-04-16T22:32:22.344Z,16.72
2023-04-16T22:34:49.568Z,16.69
2023-04-16T22:37:18.208Z,16.11
2023-04-16T22:39:45.683Z,16.27
2023-04-16T22:42:12.974Z,16.18
2023-04-16T22:44:40.084Z,16.47
2023-04-16T22:47:07.210Z,16.62
2023-04-16T22:49:34.377Z,16.69
2023-04-16T22:52:01.917Z,16.48
2023-04-16T22:54:32.446Z,16.52
2023-04-16T22:56:59.844Z,16.44
2023-04-16T22:59:26.994Z,16.40
2023-04-16T23:01:54.513Z,16.44
2023-04-16T23:04:21.700Z,16.54
2023-04-16T23:06:48.830Z,16.49
2023-04-16T23:09:15.981Z,16.36
2023-04-16T23:11:43.128Z,16.35
2023-04-16T23:14:10.352Z,16.33
2023-04-16T23:16:37.467Z,16.35
2023-04-16T23:19:04.645Z,16.33
2023-04-16T23:21:32.740Z,16.39
2023-04-16T23:23:59.877Z,16.28
2023-04-16T23:26:27.218Z,16.27
2023-04-16T23:28:54.332Z,16.30
2023-04-16T23:31:21.459Z,16.26
2023-04-16T23:33:48.566Z,16.31
2023-04-16T23:36:16.037Z,16.27
2023-04-16T23:38:43.100Z,16.21
2023-04-16T23:41:10.221Z,16.17
2023-04-16T23:43:40.268Z,16.20
2023-04-16T23:46:07.881Z,16.25
2023-04-16T23:48:35.063Z,16.31
2023-04-16T23:51:02.207Z,16.31
2023-04-16T23:53:29.285Z,16.28
2023-04-16T23:55:56.463Z,16.27
2023-04-16T23:58:23.663Z,16.23
